Pagina principale
METAR-TAF:

METAR-TAF

Aeroporti :

Sion, Svizzera

latitudine: 46-13N, longitudine: 007-20E, altezza: 482 m

Osservazione

Il bollettino è stato emesso 30 minuti fa, alle 22:20 UTC
Vento 4 kt da ovest
Temperature 8°C
Umidità 100%
Pressione 1011 hPa
Visibilità 10 km o più
Nuvoloso
pioggia debole

METAR: LSGS 152220Z AUTO 26004KT 9999 -RA BKN/// 08/08 Q1011

Ora: 00:50 (22:50 UTC)

Previsione

Il bollettino è stato emesso 8 ore e 25 minuti fa, alle 14:25 UTC
Previsione valida dal 15 alle 15 UTC al 15 alle 24 UTC
Vento 2 kt da direzioni variabili
Visibilità 10 km o più
Nubi sparse ad un'altezza di 2000 ft
Cielo coperto ad un'altezza di 5000 ft
pioggia debole

TAF: LSGS 151425Z 1515/1524 VRB02KT 9999 -RA SCT020 OVC050

Osservazioni e previsioni meteorologiche di più di 4000 aeroporti (messaggi METAR e TAF).

Le stazioni disponibili sono rappresentate dai dischi gialli e rossi sulla carta.

Puntare il mouse per vedere il nome della stazione.

Clicca sopra per visualizzare le osservazioni e previsioni meteorologiche.

Per cambiare la mappa : fare clic sui pulsanti verdi con una croce nera per ingrandire, il pulsante verde con un trattino per diminuire, o sulla freccia verde per le mappe adiacenti.


METAR-TAF: